Time,TemperatureF,DewpointF,PressureIn,WindDirection,WindDirectionDegrees,WindSpeedMPH,WindSpeedGustMPH,Humidity,HourlyPrecipIn,Conditions,Clouds,dailyrainin,SolarRadiationWatts/m^2,SoftwareType,DateUTC
2013-07-26 00:00:00,58.4,56.7,29.81,SW,223,6.0,8.0,94,0.00,,,0.00,0,Wunderground v.1.15,2013-07-25 23:00:00,
2013-07-26 00:30:00,58.4,56.4,29.81,SW,219,7.0,7.0,93,0.00,,,0.00,0,Wunderground v.1.15,2013-07-25 23:30:00,
2013-07-26 01:00:00,58.3,56.0,29.81,SW,217,7.0,7.0,92,0.00,,,0.00,0,Wunderground v.1.15,2013-07-26 00:00:00,
2013-07-26 01:30:00,58.4,56.4,29.81,SW,217,7.0,8.0,93,0.00,,,0.00,0,Wunderground v.1.15,2013-07-26 00:30:00,
2013-07-26 02:00:00,58.5,56.8,29.81,SW,225,8.0,8.0,94,0.00,,,0.01,0,Wunderground v.1.15,2013-07-26 01:00:00,
2013-07-26 02:30:00,58.4,56.7,29.81,SW,225,6.0,6.0,94,0.00,,,0.01,0,Wunderground v.1.15,2013-07-26 01:30:00,
2013-07-26 03:00:00,58.1,56.4,29.81,WSW,238,5.0,5.0,94,0.00,,,0.02,0,Wunderground v.1.15,2013-07-26 02:00:00,
2013-07-26 03:30:00,57.8,56.4,29.81,SW,223,6.0,7.0,95,0.00,,,0.02,0,Wunderground v.1.15,2013-07-26 02:30:00,
2013-07-26 04:00:00,57.6,56.2,29.81,SW,223,5.0,6.0,95,0.00,,,0.02,0,Wunderground v.1.15,2013-07-26 03:00:00,
2013-07-26 04:30:00,56.9,55.5,29.81,SW,227,5.0,5.0,95,0.00,,,0.02,0,Wunderground v.1.15,2013-07-26 03:30:00,
2013-07-26 05:01:00,56.0,54.6,29.82,SW,227,4.0,4.0,95,0.00,,,0.02,0,Wunderground v.1.15,2013-07-26 04:01:00,
2013-07-26 05:30:00,55.5,54.4,29.82,SW,227,5.0,5.0,96,0.00,,,0.02,0,Wunderground v.1.15,2013-07-26 04:30:00,
2013-07-26 06:00:00,55.4,54.3,29.82,SW,227,5.0,5.0,96,0.00,,,0.02,12,Wunderground v.1.15,2013-07-26 05:00:00,
2013-07-26 06:30:00,55.3,54.2,29.83,SW,226,6.0,6.0,96,0.00,,,0.02,30,Wunderground v.1.15,2013-07-26 05:30:00,
2013-07-26 07:00:00,56.0,54.9,29.83,SW,224,6.0,7.0,96,0.00,,,0.02,102,Wunderground v.1.15,2013-07-26 06:00:00,
2013-07-26 07:30:00,57.3,55.9,29.83,SW,228,5.0,5.0,95,0.00,,,0.02,178,Wunderground v.1.15,2013-07-26 06:30:00,
2013-07-26 08:00:00,58.9,57.2,29.84,WSW,240,7.0,7.0,94,0.00,,,0.02,258,Wunderground v.1.15,2013-07-26 07:00:00,
2013-07-26 08:30:00,61.0,58.0,29.84,WSW,243,7.0,7.0,90,0.00,,,0.02,334,Wunderground v.1.15,2013-07-26 07:30:00,
2013-07-26 09:00:00,62.7,58.8,29.84,West,263,6.0,7.0,87,0.00,,,0.02,408,Wunderground v.1.15,2013-07-26 08:00:00,
2013-07-26 09:30:00,64.4,59.1,29.84,WSW,250,6.0,7.0,83,0.00,,,0.02,494,Wunderground v.1.15,2013-07-26 08:30:00,
2013-07-26 10:00:00,65.8,58.0,29.84,WSW,239,7.0,7.0,76,0.00,,,0.02,552,Wunderground v.1.15,2013-07-26 09:00:00,
2013-07-26 10:30:00,67.1,58.5,29.84,WSW,241,6.0,7.0,74,0.00,,,0.03,679,Wunderground v.1.15,2013-07-26 09:30:00,
2013-07-26 11:00:00,66.6,57.7,29.84,SW,229,6.0,7.0,73,0.00,,,0.03,715,Wunderground v.1.15,2013-07-26 10:00:00,
2013-07-26 11:30:00,68.1,57.5,29.83,WSW,246,5.0,5.0,69,0.00,,,0.03,424,Wunderground v.1.15,2013-07-26 10:30:00,
2013-07-26 12:00:00,67.0,56.9,29.84,WSW,256,3.0,5.0,70,0.00,,,0.03,146,Wunderground v.1.15,2013-07-26 11:00:00,
2013-07-26 12:30:00,67.7,59.9,29.83,South,178,7.0,13.0,76,0.00,,,0.03,1113,Wunderground v.1.15,2013-07-26 11:30:00,
2013-07-26 13:00:00,67.7,59.5,29.83,South,184,7.0,8.0,75,0.00,,,0.03,445,Wunderground v.1.15,2013-07-26 12:00:00,
2013-07-26 13:30:00,66.1,58.3,29.83,SSE,165,10.0,10.0,76,0.00,,,0.03,297,Wunderground v.1.15,2013-07-26 12:30:00,
2013-07-26 14:00:00,66.2,60.2,29.83,SSE,159,7.0,7.0,81,0.00,,,0.03,439,Wunderground v.1.15,2013-07-26 13:00:00,
2013-07-26 14:30:00,67.2,59.0,29.82,SSE,157,9.0,9.0,75,0.00,,,0.03,450,Wunderground v.1.15,2013-07-26 13:30:00,
2013-07-26 15:00:00,69.8,59.2,29.82,South,173,6.0,7.0,69,0.00,,,0.03,828,Wunderground v.1.15,2013-07-26 14:00:00,
2013-07-26 15:30:00,67.0,59.2,29.82,South,188,8.0,11.0,76,0.00,,,0.03,121,Wunderground v.1.15,2013-07-26 14:30:00,
2013-07-26 16:00:00,62.7,59.4,29.83,SSW,207,7.0,7.0,89,0.00,,,0.04,190,Wunderground v.1.15,2013-07-26 15:00:00,
2013-07-26 16:30:00,65.8,60.8,29.82,SSE,168,5.0,7.0,84,0.00,,,0.04,686,Wunderground v.1.15,2013-07-26 15:30:00,
2013-07-26 17:00:00,68.0,60.9,29.81,ESE,106,5.0,5.0,78,0.00,,,0.04,635,Wunderground v.1.15,2013-07-26 16:00:00,
2013-07-26 17:30:00,67.0,60.3,29.80,SSE,168,8.0,8.0,79,0.00,,,0.04,659,Wunderground v.1.15,2013-07-26 16:30:00,
2013-07-26 18:00:00,64.8,59.9,29.80,South,173,11.0,11.0,84,0.00,,,0.04,179,Wunderground v.1.15,2013-07-26 17:00:00,
2013-07-26 18:30:00,65.0,60.7,29.80,SSE,161,9.0,9.0,86,0.00,,,0.04,100,Wunderground v.1.15,2013-07-26 17:30:00,
2013-07-26 19:00:00,64.3,60.3,29.79,SSE,158,8.0,11.0,87,0.00,,,0.04,84,Wunderground v.1.15,2013-07-26 18:00:00,
2013-07-26 19:30:00,62.6,58.4,29.80,South,188,7.0,7.0,86,0.00,,,0.04,37,Wunderground v.1.15,2013-07-26 18:30:00,
2013-07-26 20:00:00,62.3,59.3,29.81,WSW,252,3.0,3.0,90,0.00,,,0.04,39,Wunderground v.1.15,2013-07-26 19:00:00,
2013-07-26 20:30:00,62.0,59.3,29.80,WSW,251,3.0,3.0,91,0.00,,,0.04,14,Wunderground v.1.15,2013-07-26 19:30:00,
2013-07-26 21:00:00,61.6,58.6,29.80,WSW,250,4.0,5.0,90,0.00,,,0.04,7,Wunderground v.1.15,2013-07-26 20:00:00,
2013-07-26 21:30:00,60.6,58.0,29.81,WSW,250,2.0,3.0,91,0.00,,,0.04,0,Wunderground v.1.15,2013-07-26 20:30:00,
2013-07-26 22:00:00,59.3,57.0,29.81,South,170,7.0,7.0,92,0.00,,,0.04,0,Wunderground v.1.15,2013-07-26 21:00:00,
2013-07-26 22:30:00,60.0,57.4,29.81,South,186,7.0,7.0,91,0.00,,,0.04,0,Wunderground v.1.15,2013-07-26 21:30:00,
2013-07-26 23:00:00,59.6,56.7,29.82,SSW,196,6.0,8.0,90,0.00,,,0.04,0,Wunderground v.1.15,2013-07-26 22:00:00,
2013-07-26 23:30:00,59.1,56.5,29.82,SSW,203,7.0,7.0,91,0.00,,,0.04,0,Wunderground v.1.15,2013-07-26 22:30:00,